Applegate, California
Current Conditions -  °F | °C
As of 9:35 PM on Saturday 25 Oct 2014 (Local Time) from KAUN Reporting Station
Broken Clouds Broken Clouds  
Wind Chill: 13°   Ceiling: 5000
Heat Index: 13°   Visibility: 10mi
Dew Point: 13°   Wind: 5mph
Humidity: 100%   Direction: 170°S
Pressure: 30.11"   Gusts: NA
Location:  39°N, 120.99°W
Report Text: KAUN 260435Z AUTO 17004KT 10SM FEW033 SCT038 BKN050 13/13 A3011 RMK AO1
Loading
Personal Weather Stations






























Interactive Weather Map
Tropical Storm Tracking
New forecast layout! Learn more

10-Day Weather Forecast

Advertisements
Track Severe Weather on mobile